Aviation Digital Data Service (ADDS)

Output produced by TAFs form (0021 UTC 29 June 2017)
found at http://aviationweather.gov/adds/tafs/
 
KAEG 282320Z 2900/2924 26015G25KT P6SM SKC 
     FM290300 26012KT P6SM SKC 
     FM291100 23008KT P6SM SKC 
     FM291900 27015G25KT P6SM SKC